createdAt,value
2022-11-10T00:02:27.009Z,2.42
2022-11-10T00:05:14.734Z,2.75
2022-11-10T00:08:05.756Z,2.22
2022-11-10T00:10:58.291Z,1.80
2022-11-10T00:14:07.202Z,2.13
2022-11-10T00:17:04.232Z,1.95
2022-11-10T00:19:50.141Z,1.63
2022-11-10T00:22:38.043Z,2.03
2022-11-10T00:25:26.627Z,2.70
2022-11-10T00:28:12.599Z,2.10
2022-11-10T00:30:59.201Z,2.33
2022-11-10T00:33:45.286Z,1.70
2022-11-10T00:36:31.902Z,1.73
2022-11-10T00:39:17.847Z,1.73
2022-11-10T00:42:04.629Z,2.08
2022-11-10T00:44:51.056Z,2.10
2022-11-10T00:47:36.965Z,1.70
2022-11-10T00:50:22.730Z,2.28
2022-11-10T00:53:08.575Z,2.10
2022-11-10T00:55:54.749Z,2.72
2022-11-10T00:58:41.117Z,1.83
2022-11-10T01:01:27.422Z,2.15
2022-11-10T01:04:13.694Z,2.40
2022-11-10T01:06:59.594Z,1.85
2022-11-10T01:09:45.960Z,1.90
2022-11-10T01:12:32.276Z,1.77
2022-11-10T01:15:26.034Z,1.70
2022-11-10T01:18:13.351Z,1.92
2022-11-10T01:20:59.475Z,2.15
2022-11-10T01:23:45.905Z,1.90
2022-11-10T01:26:32.395Z,1.95
2022-11-10T01:29:18.127Z,2.42
2022-11-10T01:32:04.082Z,1.98
2022-11-10T01:34:49.813Z,2.60
2022-11-10T01:37:36.020Z,2.33
2022-11-10T01:40:21.868Z,2.35
2022-11-10T01:43:10.572Z,2.13
2022-11-10T01:46:04.877Z,2.38
2022-11-10T01:48:56.271Z,1.98
2022-11-10T01:51:52.239Z,2.55
2022-11-10T01:54:45.831Z,1.60
2022-11-10T01:57:32.118Z,2.20
2022-11-10T02:00:19.243Z,2.38
2022-11-10T02:03:16.353Z,1.67
2022-11-10T02:06:04.420Z,2.22
2022-11-10T02:08:51.303Z,2.50
2022-11-10T02:11:38.859Z,2.25
2022-11-10T02:14:25.447Z,1.65
2022-11-10T02:17:12.229Z,3.17
2022-11-10T02:20:04.780Z,2.10
2022-11-10T02:22:50.552Z,2.40
2022-11-10T02:25:36.999Z,2.15
2022-11-10T02:28:24.346Z,2.03
2022-11-10T02:31:10.626Z,2.20
2022-11-10T02:33:57.078Z,2.80
2022-11-10T02:36:43.680Z,2.13
2022-11-10T02:39:29.665Z,1.95
2022-11-10T02:42:15.746Z,2.10
2022-11-10T02:45:01.696Z,2.35
2022-11-10T02:47:47.842Z,2.40
2022-11-10T02:50:34.369Z,2.08
2022-11-10T02:53:20.705Z,1.92
2022-11-10T02:56:07.302Z,1.70
2022-11-10T02:58:53.043Z,1.92
2022-11-10T03:01:39.238Z,2.83
2022-11-10T03:04:25.546Z,2.45
2022-11-10T03:07:11.532Z,2.25
2022-11-10T03:09:57.635Z,2.20
2022-11-10T03:12:43.260Z,2.30
2022-11-10T03:15:30.233Z,2.53
2022-11-10T03:18:16.164Z,2.40
2022-11-10T03:21:03.363Z,2.25
2022-11-10T03:23:49.103Z,2.22
2022-11-10T03:26:35.069Z,2.22
2022-11-10T03:29:20.766Z,2.50
2022-11-10T03:32:06.639Z,2.22
2022-11-10T03:34:52.435Z,2.00
2022-11-10T03:37:41.075Z,1.48
2022-11-10T03:40:27.357Z,2.78
2022-11-10T03:43:13.429Z,1.88
2022-11-10T03:45:59.323Z,2.28
2022-11-10T03:48:50.230Z,2.30
2022-11-10T03:51:39.069Z,2.05
2022-11-10T03:54:24.730Z,2.30
2022-11-10T03:57:10.466Z,2.60
2022-11-10T03:59:56.169Z,1.95
2022-11-10T04:02:42.098Z,2.53
2022-11-10T04:05:46.801Z,2.27
2022-11-10T04:08:51.588Z,2.63
2022-11-10T04:11:56.420Z,2.40
2022-11-10T04:15:01.118Z,2.47
2022-11-10T04:17:50.783Z,2.23
2022-11-10T04:20:36.680Z,2.30
2022-11-10T04:23:27.786Z,2.30
2022-11-10T04:26:30.192Z,2.25
2022-11-10T04:29:19.105Z,2.17
2022-11-10T04:32:05.166Z,2.23
2022-11-10T04:34:51.116Z,2.93
2022-11-10T04:37:37.396Z,2.43
2022-11-10T04:40:23.382Z,2.10
2022-11-10T04:43:09.023Z,2.10
2022-11-10T04:45:54.879Z,2.43
2022-11-10T04:48:40.335Z,2.17
2022-11-10T04:51:29.333Z,2.17
2022-11-10T04:54:15.427Z,2.30
2022-11-10T04:57:01.354Z,2.53
2022-11-10T04:59:47.048Z,2.47
2022-11-10T05:02:38.310Z,2.10
2022-11-10T05:05:26.224Z,2.37
2022-11-10T05:08:12.354Z,2.17
2022-11-10T05:10:58.161Z,2.43
2022-11-10T05:13:45.475Z,2.47
2022-11-10T05:16:31.956Z,2.10
2022-11-10T05:19:17.822Z,1.90
2022-11-10T05:22:03.796Z,2.10
2022-11-10T05:24:49.614Z,1.80
2022-11-10T05:27:35.494Z,2.47
2022-11-10T05:30:21.343Z,1.90
2022-11-10T05:33:08.191Z,2.40
2022-11-10T05:35:54.212Z,3.07
2022-11-10T05:38:43.509Z,2.07
2022-11-10T05:41:29.781Z,2.50
2022-11-10T05:44:15.687Z,2.50
2022-11-10T05:47:01.577Z,2.77
2022-11-10T05:49:47.370Z,2.33
2022-11-10T05:52:33.355Z,2.20
2022-11-10T05:55:27.292Z,2.73
2022-11-10T05:58:13.036Z,2.90
2022-11-10T06:00:59.127Z,2.77
2022-11-10T06:03:45.424Z,2.83
2022-11-10T06:06:31.727Z,3.20
2022-11-10T06:09:17.503Z,3.00
2022-11-10T06:12:04.033Z,3.30
2022-11-10T06:14:49.797Z,4.27
2022-11-10T06:17:37.835Z,2.50
2022-11-10T06:20:24.892Z,2.40
2022-11-10T06:23:12.032Z,2.93
2022-11-10T06:25:58.518Z,2.47
2022-11-10T06:28:44.620Z,2.77
2022-11-10T06:31:30.681Z,2.83
2022-11-10T06:34:16.578Z,2.23
2022-11-10T06:37:02.555Z,2.50
2022-11-10T06:39:48.508Z,2.60
2022-11-10T06:42:34.879Z,2.67
2022-11-10T06:45:22.005Z,4.10
2022-11-10T06:48:11.598Z,2.40
2022-11-10T06:51:01.760Z,3.17
2022-11-10T06:53:47.696Z,4.10
2022-11-10T06:56:34.732Z,3.00
2022-11-10T06:59:20.909Z,2.63
2022-11-10T07:02:13.707Z,3.50
2022-11-10T07:05:00.074Z,4.10
2022-11-10T07:07:46.323Z,3.42
2022-11-10T07:10:33.047Z,3.50
2022-11-10T07:13:20.064Z,4.53
2022-11-10T07:16:08.242Z,4.15
2022-11-10T07:18:54.487Z,3.97
2022-11-10T07:21:42.397Z,5.03
2022-11-10T07:24:30.493Z,4.10
2022-11-10T07:27:16.862Z,4.47
2022-11-10T07:30:03.361Z,4.00
2022-11-10T07:33:02.495Z,6.55
2022-11-10T07:35:55.057Z,4.38
2022-11-10T07:38:40.959Z,4.07
2022-11-10T07:41:27.004Z,4.13
2022-11-10T07:44:12.850Z,4.93
2022-11-10T07:46:59.061Z,4.57
2022-11-10T07:49:45.104Z,4.78
2022-11-10T07:52:30.892Z,4.25
2022-11-10T07:55:16.934Z,3.20
2022-11-10T07:58:03.596Z,3.92
2022-11-10T08:00:49.554Z,3.17
2022-11-10T08:03:35.513Z,4.28
2022-11-10T08:06:21.673Z,3.53
2022-11-10T08:09:07.716Z,4.10
2022-11-10T08:11:53.698Z,3.17
2022-11-10T08:14:39.535Z,4.38
2022-11-10T08:17:25.638Z,3.70
2022-11-10T08:20:12.398Z,3.10
2022-11-10T08:23:03.593Z,3.42
2022-11-10T08:25:52.858Z,2.63
2022-11-10T08:28:38.715Z,3.05
2022-11-10T08:31:25.075Z,2.63
2022-11-10T08:34:11.243Z,3.08
2022-11-10T08:36:58.677Z,2.85
2022-11-10T08:39:44.751Z,3.20
2022-11-10T08:42:30.920Z,2.92
2022-11-10T08:45:16.922Z,3.05
2022-11-10T08:48:06.235Z,2.80
2022-11-10T08:50:52.565Z,3.00
2022-11-10T08:53:38.621Z,2.58
2022-11-10T08:56:26.428Z,2.20
2022-11-10T08:59:12.746Z,2.20
2022-11-10T09:01:58.960Z,3.08
2022-11-10T09:04:45.183Z,2.67
2022-11-10T09:07:32.126Z,3.00
2022-11-10T09:10:18.823Z,3.53
2022-11-10T09:13:06.022Z,3.47
2022-11-10T09:15:52.223Z,3.42
2022-11-10T09:18:37.732Z,2.83
2022-11-10T09:21:23.550Z,3.63
2022-11-10T09:24:09.330Z,3.47
2022-11-10T09:26:55.366Z,3.08
2022-11-10T09:29:41.982Z,2.42
2022-11-10T09:32:27.955Z,2.45
2022-11-10T09:35:13.989Z,2.88
2022-11-10T09:38:00.088Z,5.40
2022-11-10T09:40:55.957Z,5.68
2022-11-10T09:43:47.944Z,4.90
2022-11-10T09:46:44.742Z,4.18
2022-11-10T09:49:44.967Z,3.28
2022-11-10T09:52:35.910Z,2.30
2022-11-10T09:55:37.511Z,3.45
2022-11-10T09:58:29.898Z,2.65
2022-11-10T10:01:19.185Z,2.67
2022-11-10T10:04:21.599Z,3.88
2022-11-10T10:07:13.330Z,2.42
2022-11-10T10:10:23.967Z,2.90
2022-11-10T10:13:49.230Z,3.33
2022-11-10T10:16:50.996Z,2.95
2022-11-10T10:19:41.359Z,2.40
2022-11-10T10:22:52.441Z,2.35
2022-11-10T10:25:41.596Z,2.92
2022-11-10T10:28:38.152Z,3.35
2022-11-10T10:31:32.627Z,3.47
2022-11-10T10:34:24.480Z,2.85
2022-11-10T10:37:25.619Z,2.58
2022-11-10T10:40:17.315Z,3.08
2022-11-10T10:43:04.287Z,2.95
2022-11-10T10:46:09.441Z,3.30
2022-11-10T10:49:28.194Z,4.07
2022-11-10T10:52:25.105Z,3.78
2022-11-10T10:55:14.052Z,4.80
2022-11-10T10:58:03.772Z,4.82
2022-11-10T11:01:06.282Z,5.57
2022-11-10T11:03:53.521Z,4.28
2022-11-10T11:06:39.852Z,4.55
2022-11-10T11:09:29.918Z,4.28
2022-11-10T11:12:22.312Z,4.32
2022-11-10T11:15:29.454Z,4.90
2022-11-10T11:18:17.950Z,5.20
2022-11-10T11:21:18.824Z,4.18
2022-11-10T11:24:25.935Z,4.30
2022-11-10T11:27:37.758Z,4.47
2022-11-10T11:30:28.457Z,4.22
2022-11-10T11:33:38.118Z,4.10
2022-11-10T11:36:34.756Z,3.80
2022-11-10T11:39:42.647Z,4.25
2022-11-10T11:42:49.458Z,3.80
2022-11-10T11:45:49.276Z,3.97
2022-11-10T11:48:51.560Z,3.65
2022-11-10T11:51:51.498Z,3.80
2022-11-10T11:55:04.207Z,4.60
2022-11-10T11:58:11.822Z,5.32
2022-11-10T12:01:22.666Z,3.85
2022-11-10T12:04:17.370Z,3.42
2022-11-10T12:07:28.330Z,3.72
2022-11-10T12:10:42.991Z,4.25
2022-11-10T12:14:02.592Z,5.45
2022-11-10T12:17:21.532Z,4.72
2022-11-10T12:20:33.640Z,4.10
2022-11-10T12:23:25.449Z,4.10
2022-11-10T12:26:52.554Z,3.78
2022-11-10T12:29:47.719Z,4.45
2022-11-10T12:32:41.957Z,3.28
2022-11-10T12:35:32.590Z,3.45
2022-11-10T12:38:29.163Z,3.50
2022-11-10T12:41:18.303Z,3.13
2022-11-10T12:44:35.276Z,2.38
2022-11-10T12:47:25.837Z,3.17
2022-11-10T12:50:39.634Z,3.05
2022-11-10T12:53:38.856Z,2.90
2022-11-10T12:56:50.491Z,3.25
2022-11-10T12:59:39.329Z,2.38
2022-11-10T13:02:37.979Z,2.50
2022-11-10T13:05:23.595Z,2.95
2022-11-10T13:08:19.989Z,3.78
2022-11-10T13:11:24.455Z,2.38
2022-11-10T13:14:22.606Z,2.80
2022-11-10T13:17:11.563Z,2.67
2022-11-10T13:20:20.817Z,3.53
2022-11-10T13:23:31.216Z,4.05
2022-11-10T13:26:40.300Z,2.42
2022-11-10T13:29:35.100Z,2.33
2022-11-10T13:32:30.204Z,2.45
2022-11-10T13:35:28.203Z,3.33
2022-11-10T13:38:32.562Z,2.05
2022-11-10T13:41:18.735Z,2.38
2022-11-10T13:44:24.785Z,2.35
2022-11-10T13:47:19.053Z,2.63
2022-11-10T13:50:28.113Z,3.40
2022-11-10T13:53:20.193Z,2.95
2022-11-10T13:56:40.318Z,3.10
2022-11-10T13:59:30.098Z,2.80
2022-11-10T14:02:34.893Z,2.50
2022-11-10T14:05:41.868Z,2.85
2022-11-10T14:08:32.634Z,2.28
2022-11-10T14:11:24.179Z,2.00
2022-11-10T14:14:25.003Z,2.17
2022-11-10T14:17:29.882Z,2.63
2022-11-10T14:20:26.078Z,2.33
2022-11-10T14:23:41.777Z,2.30
2022-11-10T14:26:32.972Z,2.10
2022-11-10T14:29:38.608Z,2.65
2022-11-10T14:32:26.011Z,2.45
2022-11-10T14:35:25.769Z,2.38
2022-11-10T14:38:21.235Z,2.95
2022-11-10T14:41:18.777Z,1.35
2022-11-10T14:44:07.690Z,1.88
2022-11-10T14:46:54.781Z,2.17
2022-11-10T14:49:41.841Z,3.10
2022-11-10T14:52:27.847Z,3.10
2022-11-10T14:55:18.336Z,3.20
2022-11-10T14:58:10.338Z,2.33
2022-11-10T15:00:56.501Z,18.48
2022-11-10T15:03:43.206Z,5.95
2022-11-10T15:06:30.666Z,2.92
2022-11-10T15:09:24.487Z,4.13
2022-11-10T15:12:13.326Z,2.72
2022-11-10T15:15:00.919Z,2.42
2022-11-10T15:17:50.448Z,2.25
2022-11-10T15:20:41.108Z,2.78
2022-11-10T15:23:36.469Z,2.13
2022-11-10T15:26:28.383Z,2.33
2022-11-10T15:29:21.623Z,2.00
2022-11-10T15:32:16.338Z,1.80
2022-11-10T15:35:22.136Z,2.70
2022-11-10T15:38:20.602Z,2.80
2022-11-10T15:41:27.360Z,2.08
2022-11-10T15:44:17.260Z,2.85
2022-11-10T15:47:03.497Z,5.97
2022-11-10T15:49:49.657Z,3.78
2022-11-10T15:52:38.591Z,2.63
2022-11-10T15:55:25.265Z,3.05
2022-11-10T15:58:18.010Z,3.63
2022-11-10T16:01:04.609Z,2.35
2022-11-10T16:03:50.724Z,3.50
2022-11-10T16:06:37.334Z,2.08
2022-11-10T16:09:23.390Z,3.28
2022-11-10T16:12:16.399Z,2.97
2022-11-10T16:15:02.710Z,3.45
2022-11-10T16:17:48.529Z,3.95
2022-11-10T16:20:34.421Z,3.88
2022-11-10T16:23:20.429Z,2.80
2022-11-10T16:26:07.686Z,2.60
2022-11-10T16:28:53.690Z,2.50
2022-11-10T16:31:39.819Z,2.70
2022-11-10T16:34:25.802Z,2.60
2022-11-10T16:37:13.025Z,2.60
2022-11-10T16:39:59.216Z,2.80
2022-11-10T16:42:45.657Z,2.80
2022-11-10T16:45:32.033Z,3.65
2022-11-10T16:48:23.884Z,3.30
2022-11-10T16:51:11.234Z,3.05
2022-11-10T16:53:59.393Z,2.70
2022-11-10T16:56:45.631Z,4.07
2022-11-10T16:59:31.665Z,3.07
2022-11-10T17:02:31.370Z,3.23
2022-11-10T17:05:19.414Z,3.53
2022-11-10T17:08:05.583Z,4.63
2022-11-10T17:10:52.053Z,3.70
2022-11-10T17:13:38.018Z,3.70
2022-11-10T17:16:35.681Z,3.60
2022-11-10T17:19:25.020Z,3.30
2022-11-10T17:22:12.500Z,4.03
2022-11-10T17:24:58.546Z,3.83
2022-11-10T17:27:44.642Z,4.77
2022-11-10T17:30:30.904Z,4.73
2022-11-10T17:33:16.871Z,3.60
2022-11-10T17:36:05.084Z,3.83
2022-11-10T17:38:52.332Z,3.43
2022-11-10T17:41:38.719Z,3.67
2022-11-10T17:44:24.678Z,3.70
2022-11-10T17:47:10.422Z,3.70
2022-11-10T17:49:56.433Z,4.00
2022-11-10T17:52:42.663Z,3.60
2022-11-10T17:55:34.071Z,4.57
2022-11-10T17:58:21.044Z,3.53
2022-11-10T18:01:18.686Z,3.57
2022-11-10T18:04:05.188Z,3.97
2022-11-10T18:06:51.427Z,3.40
2022-11-10T18:09:37.074Z,3.17
2022-11-10T18:12:27.776Z,3.20
2022-11-10T18:15:16.421Z,4.67
2022-11-10T18:18:02.444Z,4.40
2022-11-10T18:20:48.423Z,5.37
2022-11-10T18:23:34.772Z,4.37
2022-11-10T18:26:21.170Z,4.53
2022-11-10T18:29:07.108Z,4.17
2022-11-10T18:31:53.043Z,5.30
2022-11-10T18:34:39.236Z,4.80
2022-11-10T18:37:25.554Z,4.40
2022-11-10T18:40:12.324Z,5.40
2022-11-10T18:43:03.154Z,4.77
2022-11-10T18:45:53.971Z,4.80
2022-11-10T18:48:41.152Z,5.70
2022-11-10T18:51:27.367Z,5.63
2022-11-10T18:54:13.330Z,5.03
2022-11-10T18:56:59.639Z,3.67
2022-11-10T18:59:45.951Z,4.93
2022-11-10T19:02:32.011Z,4.83
2022-11-10T19:05:18.038Z,5.77
2022-11-10T19:08:04.215Z,5.07
2022-11-10T19:10:50.279Z,5.40
2022-11-10T19:13:37.371Z,4.20
2022-11-10T19:16:23.457Z,4.93
2022-11-10T19:19:10.706Z,5.63
2022-11-10T19:21:56.773Z,6.00
2022-11-10T19:25:06.206Z,5.50
2022-11-10T19:27:48.681Z,6.23
2022-11-10T19:30:34.711Z,5.83
2022-11-10T19:33:21.166Z,5.03
2022-11-10T19:36:15.702Z,5.40
2022-11-10T19:39:01.423Z,5.80
2022-11-10T19:41:47.385Z,5.43
2022-11-10T19:44:33.483Z,5.13
2022-11-10T19:47:19.558Z,5.07
2022-11-10T19:50:05.920Z,4.87
2022-11-10T19:52:52.174Z,4.90
2022-11-10T19:55:38.155Z,4.53
2022-11-10T19:58:24.356Z,5.23
2022-11-10T20:01:11.732Z,5.67
2022-11-10T20:04:02.860Z,5.40
2022-11-10T20:06:48.438Z,4.73
2022-11-10T20:09:34.388Z,5.20
2022-11-10T20:12:20.067Z,4.93
2022-11-10T20:15:06.648Z,5.17
2022-11-10T20:17:52.863Z,4.43
2022-11-10T20:20:39.747Z,4.43
2022-11-10T20:23:26.043Z,4.17
2022-11-10T20:26:14.978Z,6.50
2022-11-10T20:29:00.949Z,6.20
2022-11-10T20:31:46.712Z,5.77
2022-11-10T20:34:32.770Z,5.50
2022-11-10T20:37:18.838Z,5.40
2022-11-10T20:40:14.059Z,5.40
2022-11-10T20:43:10.346Z,5.80
2022-11-10T20:45:56.090Z,4.53
2022-11-10T20:48:43.575Z,4.67
2022-11-10T20:51:29.895Z,4.47
2022-11-10T20:54:17.397Z,3.97
2022-11-10T20:57:03.489Z,5.17
2022-11-10T20:59:49.606Z,5.07
2022-11-10T21:02:35.556Z,4.43
2022-11-10T21:05:21.394Z,4.27
2022-11-10T21:08:07.684Z,5.70
2022-11-10T21:11:05.808Z,4.13
2022-11-10T21:13:52.086Z,4.90
2022-11-10T21:16:38.087Z,4.50
2022-11-10T21:19:24.139Z,5.10
2022-11-10T21:22:10.207Z,4.30
2022-11-10T21:24:56.028Z,5.73
2022-11-10T21:27:42.035Z,3.87
2022-11-10T21:30:28.402Z,3.60
2022-11-10T21:33:14.647Z,4.40
2022-11-10T21:36:07.183Z,5.47
2022-11-10T21:38:53.308Z,4.57
2022-11-10T21:41:39.134Z,4.17
2022-11-10T21:44:25.118Z,4.03
2022-11-10T21:47:11.597Z,4.30
2022-11-10T21:49:57.578Z,7.20
2022-11-10T21:52:43.638Z,5.93
2022-11-10T21:55:29.769Z,5.30
2022-11-10T21:58:15.611Z,4.57
2022-11-10T22:01:07.437Z,4.60
2022-11-10T22:03:53.635Z,4.67
2022-11-10T22:06:58.332Z,5.20
2022-11-10T22:10:03.315Z,4.63
2022-11-10T22:13:08.378Z,3.57
2022-11-10T22:16:13.339Z,4.40
2022-11-10T22:18:59.483Z,4.97
2022-11-10T22:21:45.567Z,4.53
2022-11-10T22:24:31.804Z,5.23
2022-11-10T22:27:18.044Z,4.50
2022-11-10T22:30:04.594Z,4.00
2022-11-10T22:32:50.570Z,4.70
2022-11-10T22:35:45.673Z,4.27
2022-11-10T22:38:37.257Z,5.47
2022-11-10T22:41:42.537Z,4.90
2022-11-10T22:44:28.590Z,3.83
2022-11-10T22:47:14.432Z,5.07
2022-11-10T22:50:00.245Z,5.20
2022-11-10T22:52:46.131Z,4.50
2022-11-10T22:55:31.921Z,5.40
2022-11-10T22:58:18.783Z,4.97
2022-11-10T23:01:09.513Z,5.13
2022-11-10T23:03:59.550Z,5.17
2022-11-10T23:06:45.377Z,6.43
2022-11-10T23:09:31.245Z,5.53
2022-11-10T23:12:18.228Z,5.83
2022-11-10T23:15:04.158Z,5.20
2022-11-10T23:17:50.373Z,4.30
2022-11-10T23:20:36.632Z,4.50
2022-11-10T23:23:22.954Z,4.60
2022-11-10T23:26:17.798Z,4.27
2022-11-10T23:29:03.683Z,4.57
2022-11-10T23:31:50.155Z,4.47
2022-11-10T23:34:35.889Z,3.97
2022-11-10T23:37:22.510Z,4.30
2022-11-10T23:40:09.319Z,5.27
2022-11-10T23:42:55.195Z,4.50
2022-11-10T23:46:05.488Z,4.20
2022-11-10T23:48:47.469Z,3.93
2022-11-10T23:51:33.256Z,5.03
2022-11-10T23:54:20.013Z,5.47
2022-11-10T23:57:06.233Z,5.27
2022-11-10T23:59:52.032Z,4.33
